SHMÚ vydal meteorologické výstrahy na Vysoké teploty Zobraziť výstrahy

METAR

Letisková meteorologická správa METAR

Meteorologické informácie z ďalších profesionálnych meteorologických staníc SHMÚ zobrazené v tvare zodpovedajúcom pravidlám kódovania správ METAR sú uvedené v položke „METSYN

Informácie o správe METAR

16.08.2018 - 21:00 UTC

METAR LZIB 162100Z VRB02KT CAVOK 20/14 Q1016=
METAR LZKZ 162100Z 36006KT CAVOK 21/15 Q1017=
METAR LZPP 162100Z AUTO 01005KT 9999 NCD 20/14 Q1016=
METAR LZSL 162100Z 34002KT CAVOK 20/16 Q1018=
METAR LZTT 162100Z VRB02KT 9999 FEW030 13/12 Q1020=
METAR LZZI 162100Z 21002KT CAVOK 18/14 Q1018=

16.08.2018 - 20:30 UTC

METAR LZIB 162030Z 34001KT CAVOK 22/13 Q1016=
METAR LZKZ 162030Z 01007KT CAVOK 22/15 Q1017=
METAR LZPP 162030Z AUTO 01004KT 9999 NCD 21/13 Q1016=
METAR LZSL 162030Z 34003KT 310V010 CAVOK 20/16 Q1018=
METAR LZTT 162030Z VRB02KT 9999 FEW030 14/12 Q1020=
METAR LZZI 162030Z VRB01KT CAVOK 19/14 Q1017=

16.08.2018 - 21:00 UTC

METAR LZMC 162100Z 00000KT CAVOK 18/12 Q1017=
METAR LZPW 162100Z AUTO VRB01KT //// ////// 18/15
Q1018=

skok na menu ↑


skok na začiatok stránky ↑